createdAt,value
2022-11-16T00:00:31.752Z,3.47
2022-11-16T00:03:03.407Z,3.60
2022-11-16T00:05:32.473Z,3.95
2022-11-16T00:08:01.074Z,3.97
2022-11-16T00:10:29.439Z,3.75
2022-11-16T00:12:58.059Z,3.72
2022-11-16T00:15:26.990Z,3.92
2022-11-16T00:17:55.602Z,3.83
2022-11-16T00:20:25.586Z,4.18
2022-11-16T00:22:53.893Z,3.70
2022-11-16T00:25:22.565Z,3.92
2022-11-16T00:27:51.081Z,4.10
2022-11-16T00:30:20.032Z,4.15
2022-11-16T00:32:48.614Z,4.20
2022-11-16T00:35:18.455Z,3.63
2022-11-16T00:37:48.411Z,3.78
2022-11-16T00:40:17.310Z,3.85
2022-11-16T00:42:45.752Z,3.75
2022-11-16T00:45:14.369Z,3.13
2022-11-16T00:47:43.093Z,3.47
2022-11-16T00:50:11.727Z,3.20
2022-11-16T00:52:40.152Z,3.03
2022-11-16T00:55:10.433Z,3.25
2022-11-16T00:57:38.879Z,3.30
2022-11-16T01:00:08.015Z,2.90
2022-11-16T01:02:36.368Z,2.40
2022-11-16T01:05:05.004Z,2.65
2022-11-16T01:07:33.798Z,2.40
2022-11-16T01:10:02.945Z,2.50
2022-11-16T01:12:31.792Z,2.20
2022-11-16T01:15:00.408Z,2.22
2022-11-16T01:17:29.110Z,2.25
2022-11-16T01:19:57.773Z,1.80
2022-11-16T01:22:26.749Z,1.90
2022-11-16T01:24:55.216Z,1.83
2022-11-16T01:27:24.565Z,1.70
2022-11-16T01:29:55.192Z,1.70
2022-11-16T01:32:23.467Z,1.80
2022-11-16T01:34:52.005Z,1.90
2022-11-16T01:37:20.842Z,1.50
2022-11-16T01:39:51.159Z,1.98
2022-11-16T01:42:20.940Z,1.80
2022-11-16T01:45:03.375Z,1.92
2022-11-16T01:47:31.875Z,2.08
2022-11-16T01:50:09.851Z,1.98
2022-11-16T01:52:41.618Z,2.40
2022-11-16T01:55:11.064Z,1.88
2022-11-16T01:57:43.621Z,1.58
2022-11-16T02:00:15.682Z,2.00
2022-11-16T02:02:44.290Z,1.77
2022-11-16T02:05:15.840Z,1.85
2022-11-16T02:08:19.459Z,2.28
2022-11-16T02:11:05.485Z,1.52
2022-11-16T02:13:42.967Z,1.83
2022-11-16T02:16:25.637Z,2.00
2022-11-16T02:19:01.562Z,2.22
2022-11-16T02:21:37.999Z,1.98
2022-11-16T02:24:37.000Z,2.00
2022-11-16T02:27:29.705Z,1.75
2022-11-16T02:29:59.702Z,2.30
2022-11-16T02:32:35.355Z,2.10
2022-11-16T02:35:10.332Z,2.25
2022-11-16T02:37:44.411Z,2.13
2022-11-16T02:40:16.186Z,2.47
2022-11-16T02:42:48.400Z,2.15
2022-11-16T02:45:22.924Z,2.50
2022-11-16T02:47:54.642Z,2.28
2022-11-16T02:50:24.692Z,2.10
2022-11-16T02:52:53.311Z,2.17
2022-11-16T02:55:21.894Z,2.20
2022-11-16T02:57:54.591Z,2.30
2022-11-16T03:00:27.054Z,1.77
2022-11-16T03:03:20.248Z,1.90
2022-11-16T03:05:52.290Z,1.70
2022-11-16T03:08:26.396Z,2.05
2022-11-16T03:11:17.076Z,1.70
2022-11-16T03:13:47.783Z,2.15
2022-11-16T03:16:21.279Z,1.85
2022-11-16T03:18:52.375Z,2.30
2022-11-16T03:21:27.805Z,2.00
2022-11-16T03:23:56.427Z,1.67
2022-11-16T03:26:31.312Z,1.80
2022-11-16T03:29:04.067Z,2.10
2022-11-16T03:31:40.391Z,1.60
2022-11-16T03:34:16.247Z,2.08
2022-11-16T03:36:47.473Z,1.58
2022-11-16T03:39:22.420Z,1.55
2022-11-16T03:41:52.013Z,1.55
2022-11-16T03:44:22.237Z,1.33
2022-11-16T03:46:52.087Z,1.83
2022-11-16T03:49:23.333Z,1.42
2022-11-16T03:51:52.627Z,1.63
2022-11-16T03:54:21.207Z,2.03
2022-11-16T03:56:49.554Z,1.70
2022-11-16T03:59:18.147Z,2.08
2022-11-16T04:01:46.496Z,2.03
2022-11-16T04:04:30.431Z,2.13
2022-11-16T04:07:16.176Z,1.90
2022-11-16T04:10:16.679Z,1.83
2022-11-16T04:13:03.407Z,2.13
2022-11-16T04:15:49.294Z,2.30
2022-11-16T04:18:35.974Z,2.10
2022-11-16T04:21:24.516Z,2.25
2022-11-16T04:24:10.560Z,1.80
2022-11-16T04:26:53.150Z,1.92
2022-11-16T04:29:22.067Z,2.00
2022-11-16T04:32:07.876Z,2.42
2022-11-16T04:34:54.069Z,2.08
2022-11-16T04:37:41.459Z,2.35
2022-11-16T04:40:11.264Z,2.22
2022-11-16T04:42:39.626Z,2.40
2022-11-16T04:45:26.283Z,2.30
2022-11-16T04:47:54.709Z,1.98
2022-11-16T04:50:23.149Z,2.15
2022-11-16T04:52:53.041Z,2.13
2022-11-16T04:55:21.586Z,2.08
2022-11-16T04:57:49.899Z,2.10
2022-11-16T05:00:19.029Z,1.80
2022-11-16T05:02:47.731Z,1.80
2022-11-16T05:05:16.069Z,2.28
2022-11-16T05:07:44.692Z,1.98
2022-11-16T05:10:15.297Z,2.22
2022-11-16T05:12:43.743Z,1.38
2022-11-16T05:15:12.152Z,1.80
2022-11-16T05:17:40.429Z,1.85
2022-11-16T05:20:28.090Z,1.50
2022-11-16T05:22:56.661Z,1.92
2022-11-16T05:25:29.309Z,2.13
2022-11-16T05:27:59.798Z,2.20
2022-11-16T05:30:29.950Z,1.90
2022-11-16T05:32:58.396Z,1.88
2022-11-16T05:35:26.932Z,2.40
2022-11-16T05:37:55.387Z,1.80
2022-11-16T05:40:25.354Z,1.92
2022-11-16T05:42:53.730Z,1.70
2022-11-16T05:45:22.250Z,2.75
2022-11-16T05:47:50.780Z,1.65
2022-11-16T05:50:19.802Z,1.58
2022-11-16T05:52:48.620Z,2.03
2022-11-16T05:55:17.162Z,1.80
2022-11-16T05:57:46.906Z,2.00
2022-11-16T06:00:16.506Z,2.40
2022-11-16T06:02:45.313Z,2.10
2022-11-16T06:05:13.982Z,1.45
2022-11-16T06:07:42.733Z,1.98
2022-11-16T06:10:11.419Z,1.80
2022-11-16T06:12:41.484Z,1.80
2022-11-16T06:15:11.586Z,2.05
2022-11-16T06:17:40.202Z,2.25
2022-11-16T06:20:10.074Z,1.73
2022-11-16T06:22:38.593Z,1.95
2022-11-16T06:25:07.899Z,1.70
2022-11-16T06:27:39.918Z,1.73
2022-11-16T06:30:10.680Z,2.28
2022-11-16T06:32:40.078Z,2.30
2022-11-16T06:35:09.354Z,1.63
2022-11-16T06:37:37.956Z,2.00
2022-11-16T06:40:07.750Z,2.08
2022-11-16T06:42:36.148Z,2.83
2022-11-16T06:45:04.897Z,1.70
2022-11-16T06:47:34.753Z,1.63
2022-11-16T06:50:03.254Z,2.13
2022-11-16T06:52:31.852Z,2.10
2022-11-16T06:55:00.229Z,1.63
2022-11-16T06:57:28.645Z,2.00
2022-11-16T06:59:57.625Z,2.42
2022-11-16T07:02:26.405Z,1.58
2022-11-16T07:05:02.099Z,2.05
2022-11-16T07:07:32.269Z,1.60
2022-11-16T07:10:00.916Z,1.83
2022-11-16T07:12:29.824Z,1.50
2022-11-16T07:14:58.381Z,1.83
2022-11-16T07:17:26.995Z,2.05
2022-11-16T07:19:58.475Z,2.15
2022-11-16T07:22:27.411Z,2.17
2022-11-16T07:24:55.842Z,2.53
2022-11-16T07:27:24.473Z,2.10
2022-11-16T07:29:52.975Z,1.90
2022-11-16T07:32:21.467Z,1.90
2022-11-16T07:34:50.233Z,1.98
2022-11-16T07:37:20.403Z,1.83
2022-11-16T07:39:49.020Z,1.50
2022-11-16T07:42:17.564Z,1.45
2022-11-16T07:44:46.014Z,1.27
2022-11-16T07:47:14.513Z,2.33
2022-11-16T07:49:43.077Z,1.80
2022-11-16T07:52:11.836Z,1.60
2022-11-16T07:54:41.717Z,1.98
2022-11-16T07:57:10.157Z,1.20
2022-11-16T07:59:38.540Z,1.60
2022-11-16T08:02:06.852Z,1.45
2022-11-16T08:04:35.411Z,1.40
2022-11-16T08:07:04.548Z,1.45
2022-11-16T08:09:33.756Z,1.73
2022-11-16T08:12:03.732Z,1.45
2022-11-16T08:14:32.372Z,1.35
2022-11-16T08:17:02.556Z,1.60
2022-11-16T08:19:31.677Z,1.80
2022-11-16T08:22:00.512Z,1.45
2022-11-16T08:24:29.690Z,1.65
2022-11-16T08:26:58.907Z,1.73
2022-11-16T08:29:29.514Z,1.35
2022-11-16T08:31:58.329Z,1.40
2022-11-16T08:34:26.831Z,2.13
2022-11-16T08:36:55.436Z,1.30
2022-11-16T08:39:38.536Z,1.35
2022-11-16T08:42:07.200Z,1.52
2022-11-16T08:44:37.476Z,1.70
2022-11-16T08:47:06.114Z,1.50
2022-11-16T08:49:34.491Z,1.60
2022-11-16T08:52:04.089Z,1.52
2022-11-16T08:54:32.907Z,1.30
2022-11-16T08:57:01.423Z,1.27
2022-11-16T08:59:30.190Z,1.38
2022-11-16T09:01:59.940Z,1.58
2022-11-16T09:04:32.721Z,1.70
2022-11-16T09:07:04.371Z,1.42
2022-11-16T09:09:32.931Z,1.42
2022-11-16T09:12:01.569Z,1.38
2022-11-16T09:14:30.795Z,1.80
2022-11-16T09:17:00.779Z,2.08
2022-11-16T09:19:29.229Z,1.70
2022-11-16T09:21:57.669Z,1.63
2022-11-16T09:24:26.323Z,1.80
2022-11-16T09:26:56.832Z,1.92
2022-11-16T09:29:27.632Z,1.52
2022-11-16T09:31:56.461Z,1.50
2022-11-16T09:34:26.731Z,1.35
2022-11-16T09:36:55.406Z,1.58
2022-11-16T09:39:31.171Z,1.45
2022-11-16T09:42:16.593Z,1.55
2022-11-16T09:45:05.015Z,1.23
2022-11-16T09:47:50.290Z,1.35
2022-11-16T09:50:48.603Z,1.25
2022-11-16T09:53:28.896Z,1.70
2022-11-16T09:56:00.705Z,1.95
2022-11-16T09:58:34.388Z,1.45
2022-11-16T10:01:08.749Z,1.75
2022-11-16T10:03:42.985Z,1.48
2022-11-16T10:06:22.305Z,1.60
2022-11-16T10:08:52.619Z,1.85
2022-11-16T10:11:35.268Z,1.48
2022-11-16T10:14:17.671Z,1.45
2022-11-16T10:16:52.061Z,1.30
2022-11-16T10:19:32.154Z,1.30
2022-11-16T10:22:15.055Z,1.17
2022-11-16T10:24:54.265Z,1.98
2022-11-16T10:27:42.791Z,1.63
2022-11-16T10:30:14.164Z,1.27
2022-11-16T10:32:49.219Z,1.50
2022-11-16T10:35:21.029Z,1.10
2022-11-16T10:37:52.208Z,1.45
2022-11-16T10:40:26.188Z,1.70
2022-11-16T10:43:01.653Z,1.33
2022-11-16T10:45:41.600Z,1.40
2022-11-16T10:48:18.928Z,1.73
2022-11-16T10:50:49.938Z,1.65
2022-11-16T10:53:34.428Z,1.17
2022-11-16T10:56:16.102Z,1.63
2022-11-16T10:58:58.178Z,1.27
2022-11-16T11:01:36.469Z,1.30
2022-11-16T11:04:20.819Z,1.33
2022-11-16T11:06:51.580Z,1.50
2022-11-16T11:09:31.561Z,1.35
2022-11-16T11:12:23.444Z,1.05
2022-11-16T11:15:04.061Z,1.33
2022-11-16T11:17:34.236Z,1.63
2022-11-16T11:20:05.651Z,1.10
2022-11-16T11:22:36.503Z,1.40
2022-11-16T11:25:20.107Z,1.30
2022-11-16T11:27:48.428Z,1.00
2022-11-16T11:30:21.247Z,1.63
2022-11-16T11:32:50.071Z,1.20
2022-11-16T11:35:26.021Z,1.23
2022-11-16T11:37:57.622Z,1.48
2022-11-16T11:40:28.506Z,1.48
2022-11-16T11:43:00.010Z,1.33
2022-11-16T11:45:36.820Z,1.52
2022-11-16T11:48:16.325Z,1.40
2022-11-16T11:50:49.793Z,1.30
2022-11-16T11:53:36.273Z,1.13
2022-11-16T11:56:07.036Z,1.58
2022-11-16T11:58:39.779Z,1.70
2022-11-16T12:01:46.022Z,1.42
2022-11-16T12:04:40.530Z,1.52
2022-11-16T12:07:16.384Z,1.70
2022-11-16T12:09:52.144Z,1.70
2022-11-16T12:12:39.096Z,1.80
2022-11-16T12:15:33.210Z,1.10
2022-11-16T12:18:14.718Z,1.20
2022-11-16T12:20:51.339Z,1.33
2022-11-16T12:23:44.220Z,1.23
2022-11-16T12:26:17.364Z,1.60
2022-11-16T12:28:58.869Z,1.95
2022-11-16T12:31:41.555Z,1.92
2022-11-16T12:34:21.418Z,1.77
2022-11-16T12:36:56.521Z,1.60
2022-11-16T12:39:28.671Z,1.85
2022-11-16T12:42:10.945Z,1.50
2022-11-16T12:44:58.543Z,1.60
2022-11-16T12:47:36.405Z,1.77
2022-11-16T12:50:19.544Z,1.40
2022-11-16T12:53:07.805Z,1.65
2022-11-16T12:55:47.343Z,1.45
2022-11-16T12:58:22.691Z,1.45
2022-11-16T13:01:02.868Z,1.50
2022-11-16T13:03:36.397Z,1.73
2022-11-16T13:06:08.889Z,1.58
2022-11-16T13:08:44.629Z,1.55
2022-11-16T13:11:18.473Z,1.50
2022-11-16T13:13:53.373Z,1.70
2022-11-16T13:16:25.297Z,2.17
2022-11-16T13:18:59.530Z,1.48
2022-11-16T13:21:39.254Z,2.05
2022-11-16T13:24:22.111Z,1.65
2022-11-16T13:27:00.880Z,1.83
2022-11-16T13:29:36.246Z,1.67
2022-11-16T13:32:10.430Z,1.90
2022-11-16T13:34:40.623Z,1.80
2022-11-16T13:37:42.519Z,1.83
2022-11-16T13:40:20.954Z,1.70
2022-11-16T13:43:19.291Z,2.33
2022-11-16T13:46:00.114Z,1.58
2022-11-16T13:48:35.622Z,1.90
2022-11-16T13:51:06.353Z,1.65
2022-11-16T13:54:38.039Z,1.98
2022-11-16T13:56:29.265Z,1.80
2022-11-16T13:58:59.247Z,2.00
2022-11-16T14:01:47.589Z,1.40
2022-11-16T14:04:39.466Z,1.52
2022-11-16T14:07:30.477Z,1.52
2022-11-16T14:09:59.349Z,1.70
2022-11-16T14:12:58.186Z,1.50
2022-11-16T14:15:32.795Z,1.50
2022-11-16T14:18:04.218Z,1.65
2022-11-16T14:20:56.157Z,1.95
2022-11-16T14:23:32.161Z,1.42
2022-11-16T14:26:14.717Z,1.63
2022-11-16T14:29:02.972Z,1.50
2022-11-16T14:31:33.491Z,1.67
2022-11-16T14:34:02.579Z,1.88
2022-11-16T14:36:42.803Z,1.50
2022-11-16T14:39:43.259Z,1.75
2022-11-16T14:42:19.590Z,1.75
2022-11-16T14:44:48.708Z,1.63
2022-11-16T14:47:24.454Z,1.40
2022-11-16T14:49:53.545Z,1.73
2022-11-16T14:52:30.090Z,1.38
2022-11-16T14:55:02.793Z,1.10
2022-11-16T14:57:31.625Z,1.30
2022-11-16T15:00:12.090Z,1.27
2022-11-16T15:02:41.907Z,1.50
2022-11-16T15:05:18.731Z,1.58
2022-11-16T15:07:51.937Z,1.50
2022-11-16T15:10:22.928Z,1.58
2022-11-16T15:12:52.816Z,1.70
2022-11-16T15:15:24.711Z,1.58
2022-11-16T15:18:08.255Z,1.40
2022-11-16T15:20:38.312Z,1.55
2022-11-16T15:23:15.684Z,1.92
2022-11-16T15:25:46.485Z,1.52
2022-11-16T15:28:17.698Z,1.95
2022-11-16T15:30:49.019Z,1.73
2022-11-16T15:33:20.092Z,2.13
2022-11-16T15:35:48.875Z,1.90
2022-11-16T15:38:22.713Z,1.90
2022-11-16T15:40:54.297Z,1.63
2022-11-16T15:43:26.318Z,1.42
2022-11-16T15:45:55.350Z,1.42
2022-11-16T15:48:25.593Z,1.58
2022-11-16T15:51:04.281Z,1.10
2022-11-16T15:53:39.508Z,0.88
2022-11-16T15:56:12.090Z,1.42
2022-11-16T15:58:41.977Z,1.15
2022-11-16T16:01:11.659Z,1.52
2022-11-16T16:03:40.511Z,1.23
2022-11-16T16:06:15.693Z,1.50
2022-11-16T16:08:45.325Z,1.17
2022-11-16T16:11:29.717Z,1.40
2022-11-16T16:13:59.984Z,1.58
2022-11-16T16:16:32.738Z,1.58
2022-11-16T16:19:09.258Z,2.40
2022-11-16T16:21:47.877Z,2.55
2022-11-16T16:24:42.775Z,2.38
2022-11-16T16:27:18.948Z,1.67
2022-11-16T16:29:52.104Z,1.70
2022-11-16T16:32:25.716Z,1.90
2022-11-16T16:34:54.615Z,1.70
2022-11-16T16:37:23.573Z,1.73
2022-11-16T16:39:58.735Z,2.28
2022-11-16T16:42:27.658Z,2.10
2022-11-16T16:44:56.164Z,1.90
2022-11-16T16:47:25.108Z,2.10
2022-11-16T16:49:53.566Z,2.67
2022-11-16T16:52:22.968Z,2.55
2022-11-16T16:54:51.429Z,2.45
2022-11-16T16:57:21.291Z,2.38
2022-11-16T16:59:49.688Z,1.95
2022-11-16T17:02:18.744Z,2.75
2022-11-16T17:04:48.569Z,2.35
2022-11-16T17:07:17.027Z,2.47
2022-11-16T17:09:45.698Z,2.67
2022-11-16T17:12:14.193Z,2.40
2022-11-16T17:14:51.226Z,2.55
2022-11-16T17:17:20.469Z,2.30
2022-11-16T17:19:49.128Z,2.70
2022-11-16T17:22:17.757Z,3.17
2022-11-16T17:24:46.273Z,2.80
2022-11-16T17:27:14.717Z,2.97
2022-11-16T17:29:44.498Z,3.60
2022-11-16T17:32:13.012Z,3.35
2022-11-16T17:34:41.583Z,2.72
2022-11-16T17:37:10.052Z,2.90
2022-11-16T17:39:38.593Z,3.28
2022-11-16T17:42:07.060Z,3.08
2022-11-16T17:44:35.561Z,2.92
2022-11-16T17:47:05.474Z,2.42
2022-11-16T17:49:34.090Z,2.83
2022-11-16T17:52:02.653Z,2.55
2022-11-16T17:54:31.444Z,3.08
2022-11-16T17:57:00.029Z,3.00
2022-11-16T17:59:30.030Z,3.10
2022-11-16T18:01:58.942Z,3.00
2022-11-16T18:04:29.299Z,2.33
2022-11-16T18:06:59.870Z,2.75
2022-11-16T18:09:28.643Z,2.97
2022-11-16T18:11:57.036Z,2.63
2022-11-16T18:14:25.958Z,2.85
2022-11-16T18:16:54.823Z,2.95
2022-11-16T18:19:23.510Z,2.97
2022-11-16T18:21:53.832Z,3.10
2022-11-16T18:24:22.347Z,2.78
2022-11-16T18:26:50.773Z,2.40
2022-11-16T18:29:19.354Z,2.05
2022-11-16T18:31:48.046Z,3.60
2022-11-16T18:34:16.984Z,3.65
2022-11-16T18:36:46.496Z,3.35
2022-11-16T18:39:18.029Z,3.10
2022-11-16T18:41:53.255Z,3.20
2022-11-16T18:44:23.391Z,3.13
2022-11-16T18:46:52.133Z,3.00
2022-11-16T18:49:20.792Z,3.08
2022-11-16T18:51:49.475Z,3.35
2022-11-16T18:54:19.590Z,3.20
2022-11-16T18:56:48.973Z,3.45
2022-11-16T18:59:17.696Z,3.80
2022-11-16T19:01:46.186Z,3.30
2022-11-16T19:04:15.278Z,3.20
2022-11-16T19:06:43.824Z,2.58
2022-11-16T19:09:13.241Z,3.13
2022-11-16T19:11:43.297Z,2.45
2022-11-16T19:14:12.153Z,2.67
2022-11-16T19:16:48.989Z,2.83
2022-11-16T19:19:19.930Z,2.50
2022-11-16T19:21:48.539Z,2.33
2022-11-16T19:24:17.397Z,2.65
2022-11-16T19:26:47.264Z,2.40
2022-11-16T19:29:15.980Z,3.17
2022-11-16T19:31:44.329Z,2.53
2022-11-16T19:34:14.557Z,2.00
2022-11-16T19:36:43.207Z,2.25
2022-11-16T19:39:11.757Z,2.95
2022-11-16T19:41:40.319Z,2.95
2022-11-16T19:44:10.506Z,2.70
2022-11-16T19:46:42.466Z,2.70
2022-11-16T19:49:19.573Z,2.20
2022-11-16T19:51:49.602Z,3.08
2022-11-16T19:54:18.878Z,2.40
2022-11-16T19:56:53.619Z,2.78
2022-11-16T19:59:24.985Z,2.42
2022-11-16T20:01:54.053Z,3.03
2022-11-16T20:04:23.176Z,3.08
2022-11-16T20:06:51.849Z,2.95
2022-11-16T20:09:20.216Z,2.55
2022-11-16T20:11:48.550Z,1.85
2022-11-16T20:14:17.258Z,2.42
2022-11-16T20:16:50.318Z,2.65
2022-11-16T20:19:20.506Z,2.17
2022-11-16T20:21:48.809Z,2.20
2022-11-16T20:24:18.752Z,2.40
2022-11-16T20:26:49.029Z,2.38
2022-11-16T20:29:19.323Z,2.30
2022-11-16T20:31:49.343Z,2.03
2022-11-16T20:34:20.427Z,2.30
2022-11-16T20:36:50.814Z,2.10
2022-11-16T20:39:21.089Z,2.47
2022-11-16T20:41:49.605Z,2.25
2022-11-16T20:44:22.264Z,2.20
2022-11-16T20:46:53.187Z,1.85
2022-11-16T20:49:21.462Z,2.30
2022-11-16T20:51:51.094Z,2.63
2022-11-16T20:54:19.560Z,2.40
2022-11-16T20:56:50.295Z,1.98
2022-11-16T20:59:18.808Z,1.85
2022-11-16T21:01:48.996Z,2.88
2022-11-16T21:04:19.103Z,2.13
2022-11-16T21:06:47.526Z,1.58
2022-11-16T21:09:22.479Z,1.63
2022-11-16T21:12:16.992Z,2.53
2022-11-16T21:14:46.760Z,2.20
2022-11-16T21:17:15.424Z,1.83
2022-11-16T21:20:05.504Z,1.70
2022-11-16T21:22:33.775Z,2.20
2022-11-16T21:25:02.174Z,2.25
2022-11-16T21:27:30.528Z,1.70
2022-11-16T21:29:59.271Z,2.00
2022-11-16T21:32:27.772Z,1.80
2022-11-16T21:34:57.583Z,1.80
2022-11-16T21:37:26.181Z,1.95
2022-11-16T21:39:54.638Z,1.50
2022-11-16T21:42:23.247Z,1.60
2022-11-16T21:44:51.664Z,1.80
2022-11-16T21:47:21.136Z,1.65
2022-11-16T21:50:16.785Z,1.73
2022-11-16T21:52:39.624Z,1.10
2022-11-16T21:55:08.397Z,1.05
2022-11-16T21:57:37.153Z,0.82
2022-11-16T22:00:06.552Z,0.98
2022-11-16T22:02:35.214Z,1.40
2022-11-16T22:05:21.207Z,0.88
2022-11-16T22:07:51.115Z,1.17
2022-11-16T22:10:19.888Z,0.90
2022-11-16T22:12:48.439Z,0.90
2022-11-16T22:15:17.087Z,1.00
2022-11-16T22:17:46.044Z,1.25
2022-11-16T22:20:14.643Z,0.88
2022-11-16T22:22:43.138Z,0.75
2022-11-16T22:25:13.860Z,0.93
2022-11-16T22:28:13.514Z,0.98
2022-11-16T22:30:31.329Z,0.82
2022-11-16T22:32:59.908Z,0.55
2022-11-16T22:35:28.721Z,0.60
2022-11-16T22:37:57.212Z,0.80
2022-11-16T22:40:27.029Z,0.70
2022-11-16T22:42:58.559Z,0.95
2022-11-16T22:45:27.175Z,0.80
2022-11-16T22:47:56.635Z,0.70
2022-11-16T22:50:25.233Z,1.00
2022-11-16T22:52:53.663Z,0.85
2022-11-16T22:55:22.387Z,0.50
2022-11-16T22:57:52.189Z,0.93
2022-11-16T23:00:21.178Z,0.65
2022-11-16T23:02:49.575Z,0.70
2022-11-16T23:05:18.021Z,0.65
2022-11-16T23:07:46.718Z,0.60
2022-11-16T23:10:15.584Z,0.68
2022-11-16T23:13:01.762Z,0.82
2022-11-16T23:15:45.295Z,0.50
2022-11-16T23:18:13.630Z,0.60
2022-11-16T23:20:59.390Z,0.60
2022-11-16T23:23:45.490Z,0.40
2022-11-16T23:26:35.878Z,0.38
2022-11-16T23:29:06.519Z,0.45
2022-11-16T23:31:36.301Z,0.60
2022-11-16T23:34:05.041Z,0.60
2022-11-16T23:36:33.547Z,0.60
2022-11-16T23:39:02.066Z,0.52
2022-11-16T23:41:47.863Z,0.57
2022-11-16T23:44:18.124Z,0.60
2022-11-16T23:46:48.168Z,0.40
2022-11-16T23:49:16.667Z,0.38
2022-11-16T23:51:45.335Z,0.22
2022-11-16T23:54:13.901Z,0.40
2022-11-16T23:56:42.469Z,0.40
2022-11-16T23:59:11.078Z,0.40
